sensor_id;sensor_type;location;lat;lon;timestamp;pressure;altitude;pressure_sealevel;temperature;humidity
75646;BME280;64237;52.438;13.240;2023-04-24T00:01:21;99856.97;;;10.93;84.98
75646;BME280;64237;52.438;13.240;2023-04-24T00:03:47;99865.22;;;10.83;85.33
75646;BME280;64237;52.438;13.240;2023-04-24T00:06:21;99861.34;;;10.79;86.02
75646;BME280;64237;52.438;13.240;2023-04-24T00:09:06;99858.00;;;10.77;85.24
75646;BME280;64237;52.438;13.240;2023-04-24T00:11:35;99856.06;;;10.78;85.26
75646;BME280;64237;52.438;13.240;2023-04-24T00:14:00;99853.31;;;10.83;85.45
75646;BME280;64237;52.438;13.240;2023-04-24T00:16:26;99836.44;;;10.79;85.65
75646;BME280;64237;52.438;13.240;2023-04-24T00:18:51;99838.63;;;10.77;86.25
75646;BME280;64237;52.438;13.240;2023-04-24T00:21:21;99841.09;;;10.74;86.74
75646;BME280;64237;52.438;13.240;2023-04-24T00:23:47;99836.72;;;10.83;86.33
75646;BME280;64237;52.438;13.240;2023-04-24T00:26:15;99829.25;;;10.83;86.36
75646;BME280;64237;52.438;13.240;2023-04-24T00:28:43;99827.03;;;10.85;86.52
75646;BME280;64237;52.438;13.240;2023-04-24T00:31:15;99817.09;;;10.89;86.32
75646;BME280;64237;52.438;13.240;2023-04-24T00:33:46;99820.47;;;10.96;86.20
75646;BME280;64237;52.438;13.240;2023-04-24T00:36:13;99799.69;;;10.94;86.58
75646;BME280;64237;52.438;13.240;2023-04-24T00:38:38;99800.56;;;10.99;86.22
75646;BME280;64237;52.438;13.240;2023-04-24T00:41:04;99799.72;;;10.99;86.88
75646;BME280;64237;52.438;13.240;2023-04-24T00:43:29;99794.50;;;11.08;86.02
75646;BME280;64237;52.438;13.240;2023-04-24T00:45:54;99793.41;;;11.09;86.63
75646;BME280;64237;52.438;13.240;2023-04-24T00:48:23;99790.34;;;11.05;86.39
75646;BME280;64237;52.438;13.240;2023-04-24T00:50:49;99796.16;;;11.04;86.46
75646;BME280;64237;52.438;13.240;2023-04-24T00:53:15;99797.81;;;10.99;86.79
75646;BME280;64237;52.438;13.240;2023-04-24T00:55:46;99797.81;;;10.99;87.13
75646;BME280;64237;52.438;13.240;2023-04-24T00:58:15;99809.44;;;11.07;87.13
75646;BME280;64237;52.438;13.240;2023-04-24T01:00:48;99800.63;;;11.15;86.18
75646;BME280;64237;52.438;13.240;2023-04-24T01:03:14;99807.84;;;11.16;86.73
75646;BME280;64237;52.438;13.240;2023-04-24T01:05:41;99803.72;;;11.23;86.03
75646;BME280;64237;52.438;13.240;2023-04-24T01:08:06;99798.19;;;11.23;86.42
75646;BME280;64237;52.438;13.240;2023-04-24T01:10:33;99804.56;;;11.24;86.15
75646;BME280;64237;52.438;13.240;2023-04-24T01:13:01;99802.31;;;11.26;86.08
75646;BME280;64237;52.438;13.240;2023-04-24T01:15:27;99804.84;;;11.32;86.72
75646;BME280;64237;52.438;13.240;2023-04-24T01:17:52;99811.81;;;11.40;87.40
75646;BME280;64237;52.438;13.240;2023-04-24T01:20:21;99797.06;;;11.29;89.72
75646;BME280;64237;52.438;13.240;2023-04-24T01:22:48;99793.47;;;11.24;90.69
75646;BME280;64237;52.438;13.240;2023-04-24T01:25:16;99787.34;;;11.17;90.97
75646;BME280;64237;52.438;13.240;2023-04-24T01:27:45;99794.03;;;11.21;92.07
75646;BME280;64237;52.438;13.240;2023-04-24T01:30:11;99792.88;;;11.17;91.58
75646;BME280;64237;52.438;13.240;2023-04-24T01:32:43;99790.13;;;11.17;92.40
75646;BME280;64237;52.438;13.240;2023-04-24T01:35:12;99788.13;;;11.07;91.98
75646;BME280;64237;52.438;13.240;2023-04-24T01:37:37;99785.09;;;11.09;92.54
75646;BME280;64237;52.438;13.240;2023-04-24T01:40:06;99788.44;;;11.11;92.90
75646;BME280;64237;52.438;13.240;2023-04-24T01:42:32;99790.91;;;11.02;92.41
75646;BME280;64237;52.438;13.240;2023-04-24T01:45:10;99779.00;;;11.02;92.89
75646;BME280;64237;52.438;13.240;2023-04-24T01:47:42;99761.72;;;10.84;92.59
75646;BME280;64237;52.438;13.240;2023-04-24T01:50:07;99770.59;;;10.86;92.85
75646;BME280;64237;52.438;13.240;2023-04-24T01:52:33;99762.84;;;10.78;93.84
75646;BME280;64237;52.438;13.240;2023-04-24T01:55:00;99766.41;;;10.74;94.00
75646;BME280;64237;52.438;13.240;2023-04-24T01:57:38;99774.97;;;10.72;93.71
75646;BME280;64237;52.438;13.240;2023-04-24T02:00:06;99764.19;;;10.76;92.88
75646;BME280;64237;52.438;13.240;2023-04-24T02:02:32;99775.50;;;10.69;93.07
75646;BME280;64237;52.438;13.240;2023-04-24T02:05:00;99768.38;;;10.78;93.59
75646;BME280;64237;52.438;13.240;2023-04-24T02:07:29;99766.41;;;10.74;93.42
75646;BME280;64237;52.438;13.240;2023-04-24T02:10:10;99760.31;;;10.72;92.72
75646;BME280;64237;52.438;13.240;2023-04-24T02:12:44;99758.34;;;10.67;93.63
75646;BME280;64237;52.438;13.240;2023-04-24T02:15:10;99745.31;;;10.62;93.92
75646;BME280;64237;52.438;13.240;2023-04-24T02:17:38;99755.00;;;10.60;93.91
75646;BME280;64237;52.438;13.240;2023-04-24T02:20:07;99746.06;;;10.48;93.99
75646;BME280;64237;52.438;13.240;2023-04-24T02:22:38;99757.16;;;10.53;94.17
75646;BME280;64237;52.438;13.240;2023-04-24T02:25:13;99756.06;;;10.54;94.02
75646;BME280;64237;52.438;13.240;2023-04-24T02:27:38;99745.50;;;10.46;94.66
75646;BME280;64237;52.438;13.240;2023-04-24T02:30:04;99747.19;;;10.52;94.35
75646;BME280;64237;52.438;13.240;2023-04-24T02:32:33;99747.19;;;10.52;93.73
75646;BME280;64237;52.438;13.240;2023-04-24T02:35:05;99758.47;;;10.45;93.78
75646;BME280;64237;52.438;13.240;2023-04-24T02:37:34;99762.13;;;10.51;94.85
75646;BME280;64237;52.438;13.240;2023-04-24T02:40:03;99765.09;;;10.44;94.63
75646;BME280;64237;52.438;13.240;2023-04-24T02:42:29;99761.28;;;10.50;94.78
75646;BME280;64237;52.438;13.240;2023-04-24T02:44:54;99755.75;;;10.50;94.47
75646;BME280;64237;52.438;13.240;2023-04-24T02:47:19;99750.53;;;10.54;94.16
75646;BME280;64237;52.438;13.240;2023-04-24T02:49:45;99753.00;;;10.50;94.48
75646;BME280;64237;52.438;13.240;2023-04-24T02:52:10;99740.06;;;10.66;95.09
75646;BME280;64237;52.438;13.240;2023-04-24T02:54:35;99741.44;;;10.58;94.03
75646;BME280;64237;52.438;13.240;2023-04-24T02:57:01;99736.16;;;10.62;94.58
75646;BME280;64237;52.438;13.240;2023-04-24T02:59:26;99742.53;;;10.62;94.91
75646;BME280;64237;52.438;13.240;2023-04-24T03:01:54;99732.31;;;10.63;94.55
75646;BME280;64237;52.438;13.240;2023-04-24T03:04:19;99742.03;;;10.71;94.25
75646;BME280;64237;52.438;13.240;2023-04-24T03:06:45;99739.56;;;10.74;93.62
75646;BME280;64237;52.438;13.240;2023-04-24T03:09:11;99752.84;;;10.72;93.97
75646;BME280;64237;52.438;13.240;2023-04-24T03:11:38;99767.16;;;10.64;94.20
75646;BME280;64237;52.438;13.240;2023-04-24T03:14:03;99754.44;;;10.63;94.37
75646;BME280;64237;52.438;13.240;2023-04-24T03:16:28;99755.84;;;10.65;94.09
75646;BME280;64237;52.438;13.240;2023-04-24T03:18:54;99750.03;;;10.67;93.84
75646;BME280;64237;52.438;13.240;2023-04-24T03:21:20;99747.31;;;10.72;93.91
75646;BME280;64237;52.438;13.240;2023-04-24T03:23:46;99761.69;;;10.74;94.00
75646;BME280;64237;52.438;13.240;2023-04-24T03:26:11;99748.44;;;10.76;94.20
75646;BME280;64237;52.438;13.240;2023-04-24T03:28:36;99746.53;;;10.82;94.30
75646;BME280;64237;52.438;13.240;2023-04-24T03:31:03;99746.50;;;10.77;94.18
75646;BME280;64237;52.438;13.240;2023-04-24T03:33:28;99751.19;;;10.76;94.38
75646;BME280;64237;52.438;13.240;2023-04-24T03:35:54;99753.41;;;10.74;94.42
75646;BME280;64237;52.438;13.240;2023-04-24T03:38:19;99758.69;;;10.81;94.84
75646;BME280;64237;52.438;13.240;2023-04-24T03:40:44;99753.47;;;10.89;94.09
75646;BME280;64237;52.438;13.240;2023-04-24T03:43:11;99760.63;;;10.80;94.44
75646;BME280;64237;52.438;13.240;2023-04-24T03:45:36;99753.44;;;10.84;94.85
75646;BME280;64237;52.438;13.240;2023-04-24T03:48:02;99758.97;;;10.84;94.97
75646;BME280;64237;52.438;13.240;2023-04-24T03:50:27;99745.97;;;10.85;94.60
75646;BME280;64237;52.438;13.240;2023-04-24T03:52:55;99754.00;;;10.86;94.91
75646;BME280;64237;52.438;13.240;2023-04-24T03:55:21;99754.06;;;10.96;94.88
75646;BME280;64237;52.438;13.240;2023-04-24T03:57:46;99747.41;;;10.92;93.71
75646;BME280;64237;52.438;13.240;2023-04-24T04:00:12;99749.59;;;10.90;94.28
75646;BME280;64237;52.438;13.240;2023-04-24T04:02:39;99754.00;;;10.86;94.41
75646;BME280;64237;52.438;13.240;2023-04-24T04:05:04;99747.94;;;10.89;94.62
75646;BME280;64237;52.438;13.240;2023-04-24T04:07:30;99750.13;;;10.87;95.06
75646;BME280;64237;52.438;13.240;2023-04-24T04:09:55;99750.97;;;10.88;94.08
75646;BME280;64237;52.438;13.240;2023-04-24T04:12:21;99746.78;;;10.85;94.01
75646;BME280;64237;52.438;13.240;2023-04-24T04:14:46;99743.44;;;10.73;94.59
75646;BME280;64237;52.438;13.240;2023-04-24T04:17:11;99742.91;;;10.76;94.53
75646;BME280;64237;52.438;13.240;2023-04-24T04:19:37;99747.31;;;10.72;95.21
75646;BME280;64237;52.438;13.240;2023-04-24T04:22:02;99745.63;;;10.71;94.30
75646;BME280;64237;52.438;13.240;2023-04-24T04:24:27;99750.03;;;10.67;95.08
75646;BME280;64237;52.438;13.240;2023-04-24T04:26:53;99742.31;;;10.69;94.79
75646;BME280;64237;52.438;13.240;2023-04-24T04:29:22;99743.44;;;10.73;94.71
75646;BME280;64237;52.438;13.240;2023-04-24T04:31:47;99747.84;;;10.69;94.36
75646;BME280;64237;52.438;13.240;2023-04-24T04:34:13;99750.59;;;10.69;94.50
75646;BME280;64237;52.438;13.240;2023-04-24T04:36:39;99750.03;;;10.67;94.59
75646;BME280;64237;52.438;13.240;2023-04-24T04:39:06;99750.88;;;10.68;95.01
75646;BME280;64237;52.438;13.240;2023-04-24T04:41:32;99766.63;;;10.67;95.08
75646;BME280;64237;52.438;13.240;2023-04-24T04:44:00;99763.28;;;10.65;94.83
75646;BME280;64237;52.438;13.240;2023-04-24T04:46:27;99758.94;;;10.74;94.93
75646;BME280;64237;52.438;13.240;2023-04-24T04:48:55;99764.47;;;10.74;94.61
75646;BME280;64237;52.438;13.240;2023-04-24T04:51:21;99759.53;;;10.81;95.25
75646;BME280;64237;52.438;13.240;2023-04-24T04:53:47;99761.19;;;10.87;94.93
75646;BME280;64237;52.438;13.240;2023-04-24T04:56:12;99770.59;;;10.86;94.43
75646;BME280;64237;52.438;13.240;2023-04-24T04:58:37;99767.34;;;10.94;93.60
75646;BME280;64237;52.438;13.240;2023-04-24T05:01:03;99767.34;;;10.94;94.09
75646;BME280;64237;52.438;13.240;2023-04-24T05:03:28;99780.94;;;11.01;94.46
75646;BME280;64237;52.438;13.240;2023-04-24T05:05:53;99770.97;;;11.10;92.24
75646;BME280;64237;52.438;13.240;2023-04-24T05:08:19;99777.09;;;11.12;92.74
75646;BME280;64237;52.438;13.240;2023-04-24T05:10:44;99779.59;;;11.19;93.42
75646;BME280;64237;52.438;13.240;2023-04-24T05:13:10;99776.31;;;11.22;92.64
75646;BME280;64237;52.438;13.240;2023-04-24T05:15:35;99777.97;;;11.28;92.03
75646;BME280;64237;52.438;13.240;2023-04-24T05:18:01;99774.41;;;11.38;90.89
75646;BME280;64237;52.438;13.240;2023-04-24T05:20:26;99776.66;;;11.46;90.43
75646;BME280;64237;52.438;13.240;2023-04-24T05:22:52;99783.03;;;11.56;90.36
75646;BME280;64237;52.438;13.240;2023-04-24T05:25:17;99783.31;;;11.55;90.70
75646;BME280;64237;52.438;13.240;2023-04-24T05:27:42;99782.50;;;11.59;89.31
75646;BME280;64237;52.438;13.240;2023-04-24T05:30:08;99776.69;;;11.61;90.27
75646;BME280;64237;52.438;13.240;2023-04-24T05:32:34;99784.16;;;11.60;89.93
75646;BME280;64237;52.438;13.240;2023-04-24T05:35:00;99779.72;;;11.59;90.54
75646;BME280;64237;52.438;13.240;2023-04-24T05:37:25;99791.94;;;11.74;87.84
75646;BME280;64237;52.438;13.240;2023-04-24T05:39:50;99789.16;;;11.68;88.28
75646;BME280;64237;52.438;13.240;2023-04-24T05:42:16;99791.38;;;11.72;87.23
75646;BME280;64237;52.438;13.240;2023-04-24T05:44:41;99789.16;;;11.68;87.91
75646;BME280;64237;52.438;13.240;2023-04-24T05:47:06;99789.69;;;11.71;88.58
75646;BME280;64237;52.438;13.240;2023-04-24T05:49:32;99794.69;;;11.74;89.39
75646;BME280;64237;52.438;13.240;2023-04-24T05:51:57;99803.06;;;11.84;86.91
75646;BME280;64237;52.438;13.240;2023-04-24T05:54:23;99802.53;;;11.87;88.38
75646;BME280;64237;52.438;13.240;2023-04-24T05:56:49;99799.19;;;11.95;86.94
75646;BME280;64237;52.438;13.240;2023-04-24T05:59:15;99796.44;;;12.05;85.44
75646;BME280;64237;52.438;13.240;2023-04-24T06:01:40;99794.78;;;12.09;85.90
75646;BME280;64237;52.438;13.240;2023-04-24T06:04:07;99793.66;;;12.15;85.24
75646;BME280;64237;52.438;13.240;2023-04-24T06:06:32;99803.94;;;12.25;84.40
75646;BME280;64237;52.438;13.240;2023-04-24T06:08:58;99804.22;;;12.28;84.11
75646;BME280;64237;52.438;13.240;2023-04-24T06:11:24;99805.84;;;12.34;83.63
75646;BME280;64237;52.438;13.240;2023-04-24T06:13:50;99808.34;;;12.41;82.85
75646;BME280;64237;52.438;13.240;2023-04-24T06:16:15;99808.06;;;12.48;83.47
75646;BME280;64237;52.438;13.240;2023-04-24T06:18:40;99819.16;;;12.68;80.83
75646;BME280;64237;52.438;13.240;2023-04-24T06:21:06;99804.13;;;12.84;81.45
75646;BME280;64237;52.438;13.240;2023-04-24T06:23:31;99820.16;;;13.02;79.94
75646;BME280;64237;52.438;13.240;2023-04-24T06:25:58;99818.13;;;13.38;82.16
75646;BME280;64237;52.438;13.240;2023-04-24T06:28:24;99821.94;;;14.02;78.84
75646;BME280;64237;52.438;13.240;2023-04-24T06:30:49;99825.94;;;14.59;74.43
75646;BME280;64237;52.438;13.240;2023-04-24T06:33:16;99815.13;;;14.18;74.03
75646;BME280;64237;52.438;13.240;2023-04-24T06:35:41;99812.53;;;13.93;72.65
75646;BME280;64237;52.438;13.240;2023-04-24T06:38:06;99818.72;;;13.85;74.50
75646;BME280;64237;52.438;13.240;2023-04-24T06:40:32;99828.13;;;13.89;75.34
75646;BME280;64237;52.438;13.240;2023-04-24T06:42:58;99810.88;;;13.92;75.34
75646;BME280;64237;52.438;13.240;2023-04-24T06:45:25;99816.13;;;13.93;76.18
75646;BME280;64237;52.438;13.240;2023-04-24T06:47:51;99807.50;;;13.95;73.09
75646;BME280;64237;52.438;13.240;2023-04-24T06:50:16;99801.94;;;13.95;72.39
75646;BME280;64237;52.438;13.240;2023-04-24T06:52:42;99802.03;;;13.85;71.74
75646;BME280;64237;52.438;13.240;2023-04-24T06:55:07;99804.03;;;13.74;72.82
75646;BME280;64237;52.438;13.240;2023-04-24T06:57:33;99818.75;;;13.80;72.62
75646;BME280;64237;52.438;13.240;2023-04-24T06:59:59;99815.97;;;13.80;72.83
75646;BME280;64237;52.438;13.240;2023-04-24T07:02:24;99799.84;;;13.77;74.44
75646;BME280;64237;52.438;13.240;2023-04-24T07:04:50;99799.56;;;13.78;72.30
75646;BME280;64237;52.438;13.240;2023-04-24T07:07:15;99797.06;;;13.77;72.39
75646;BME280;64237;52.438;13.240;2023-04-24T07:09:42;99801.44;;;13.88;72.26
75646;BME280;64237;52.438;13.240;2023-04-24T07:12:08;99805.25;;;14.02;71.80
75646;BME280;64237;52.438;13.240;2023-04-24T07:14:36;99815.19;;;14.08;71.20
75646;BME280;64237;52.438;13.240;2023-04-24T07:17:02;99810.09;;;14.20;70.95
75646;BME280;64237;52.438;13.240;2023-04-24T07:19:28;99808.84;;;14.42;68.66
75646;BME280;64237;52.438;13.240;2023-04-24T07:21:54;99804.63;;;14.49;68.01
75646;BME280;64237;52.438;13.240;2023-04-24T07:24:20;99802.56;;;14.60;69.03
75646;BME280;64237;52.438;13.240;2023-04-24T07:26:46;99811.47;;;14.86;66.18
75646;BME280;64237;52.438;13.240;2023-04-24T07:29:12;99819.00;;;14.85;65.73
75646;BME280;64237;52.438;13.240;2023-04-24T07:31:38;99814.56;;;14.84;65.60
75646;BME280;64237;52.438;13.240;2023-04-24T07:34:03;99794.47;;;14.87;65.18
75646;BME280;64237;52.438;13.240;2023-04-24T07:36:29;99804.81;;;15.11;65.65
75646;BME280;64237;52.438;13.240;2023-04-24T07:38:55;99798.25;;;15.20;63.72
75646;BME280;64237;52.438;13.240;2023-04-24T07:41:21;99790.34;;;15.51;69.06
75646;BME280;64237;52.438;13.240;2023-04-24T07:43:47;99799.41;;;15.62;63.38
75646;BME280;64237;52.438;13.240;2023-04-24T07:46:13;99801.59;;;15.84;63.43
75646;BME280;64237;52.438;13.240;2023-04-24T07:48:38;99797.06;;;16.06;63.09
75646;BME280;64237;52.438;13.240;2023-04-24T07:51:04;99793.69;;;16.09;59.62
75646;BME280;64237;52.438;13.240;2023-04-24T07:53:29;99797.22;;;16.15;59.84
75646;BME280;64237;52.438;13.240;2023-04-24T07:55:55;99788.78;;;16.20;59.64
75646;BME280;64237;52.438;13.240;2023-04-24T07:58:21;99799.75;;;16.30;58.16
75646;BME280;64237;52.438;13.240;2023-04-24T08:00:46;99796.09;;;16.49;55.84
75646;BME280;64237;52.438;13.240;2023-04-24T08:03:12;99805.59;;;16.48;55.20
75646;BME280;64237;52.438;13.240;2023-04-24T08:05:38;99795.53;;;16.33;55.21
75646;BME280;64237;52.438;13.240;2023-04-24T08:08:03;99789.50;;;16.44;56.51
75646;BME280;64237;52.438;13.240;2023-04-24T08:10:28;99793.13;;;16.45;56.56
75646;BME280;64237;52.438;13.240;2023-04-24T08:12:54;99792.38;;;16.39;55.03
75646;BME280;64237;52.438;13.240;2023-04-24T08:15:21;99791.75;;;16.42;56.13
75646;BME280;64237;52.438;13.240;2023-04-24T08:17:47;99794.41;;;16.34;55.55
75646;BME280;64237;52.438;13.240;2023-04-24T08:20:12;99799.94;;;16.20;56.74
75646;BME280;64237;52.438;13.240;2023-04-24T08:22:41;99793.91;;;16.13;55.11
75646;BME280;64237;52.438;13.240;2023-04-24T08:25:08;99792.44;;;16.02;57.93
75646;BME280;64237;52.438;13.240;2023-04-24T08:27:34;99786.47;;;15.90;55.63
75646;BME280;64237;52.438;13.240;2023-04-24T08:29:59;99789.53;;;16.07;57.35
75646;BME280;64237;52.438;13.240;2023-04-24T08:32:25;99787.72;;;16.16;57.88
75646;BME280;64237;52.438;13.240;2023-04-24T08:34:53;99794.19;;;16.30;57.54
75646;BME280;64237;52.438;13.240;2023-04-24T08:37:21;99790.50;;;16.49;55.69
75646;BME280;64237;52.438;13.240;2023-04-24T08:39:46;99804.09;;;16.55;57.73
75646;BME280;64237;52.438;13.240;2023-04-24T08:42:12;99791.13;;;16.45;56.81
75646;BME280;64237;52.438;13.240;2023-04-24T08:44:40;99797.06;;;16.58;58.44
75646;BME280;64237;52.438;13.240;2023-04-24T08:47:07;99794.09;;;16.68;57.42
75646;BME280;64237;52.438;13.240;2023-04-24T08:49:33;99793.66;;;16.61;58.18
75646;BME280;64237;52.438;13.240;2023-04-24T08:52:01;99793.91;;;16.45;58.77
75646;BME280;64237;52.438;13.240;2023-04-24T08:54:28;99793.50;;;16.38;59.23
75646;BME280;64237;52.438;13.240;2023-04-24T08:56:58;99794.72;;;16.32;60.01
75646;BME280;64237;52.438;13.240;2023-04-24T08:59:26;99800.66;;;16.26;58.48
75646;BME280;64237;52.438;13.240;2023-04-24T09:01:51;99794.63;;;16.37;59.39
75646;BME280;64237;52.438;13.240;2023-04-24T09:04:17;99809.13;;;16.39;61.03
75646;BME280;64237;52.438;13.240;2023-04-24T09:06:45;99804.78;;;16.47;59.47
75646;BME280;64237;52.438;13.240;2023-04-24T09:09:11;99802.66;;;16.58;60.65
75646;BME280;64237;52.438;13.240;2023-04-24T09:11:37;99800.13;;;16.75;59.97
75646;BME280;64237;52.438;13.240;2023-04-24T09:14:03;99801.34;;;16.69;59.30
75646;BME280;64237;52.438;13.240;2023-04-24T09:16:28;99796.00;;;16.54;59.65
75646;BME280;64237;52.438;13.240;2023-04-24T09:18:55;99796.16;;;16.62;59.99
75646;BME280;64237;52.438;13.240;2023-04-24T09:21:22;99798.09;;;16.94;60.40
75646;BME280;64237;52.438;13.240;2023-04-24T09:23:58;99807.63;;;17.34;59.27
75646;BME280;64237;52.438;13.240;2023-04-24T09:26:24;99801.41;;;17.51;57.57
75646;BME280;64237;52.438;13.240;2023-04-24T09:28:50;99805.03;;;17.38;57.03
75646;BME280;64237;52.438;13.240;2023-04-24T09:31:18;99814.38;;;17.06;57.22
75646;BME280;64237;52.438;13.240;2023-04-24T09:34:00;99804.84;;;16.61;56.92
75646;BME280;64237;52.438;13.240;2023-04-24T09:36:29;99821.34;;;16.76;58.78
75646;BME280;64237;52.438;13.240;2023-04-24T09:38:58;99819.50;;;16.53;56.64
75646;BME280;64237;52.438;13.240;2023-04-24T09:41:23;99831.59;;;16.29;60.16
75646;BME280;64237;52.438;13.240;2023-04-24T09:43:49;99817.88;;;16.33;58.67
75646;BME280;64237;52.438;13.240;2023-04-24T09:46:18;99815.22;;;16.41;58.44
75646;BME280;64237;52.438;13.240;2023-04-24T09:48:43;99823.53;;;16.79;58.06
75646;BME280;64237;52.438;13.240;2023-04-24T09:51:10;99818.16;;;16.83;56.96
75646;BME280;64237;52.438;13.240;2023-04-24T09:53:37;99814.06;;;17.07;56.43
75646;BME280;64237;52.438;13.240;2023-04-24T09:56:08;99812.38;;;17.34;55.65
75646;BME280;64237;52.438;13.240;2023-04-24T09:58:37;99808.47;;;17.98;55.26
75646;BME280;64237;52.438;13.240;2023-04-24T10:01:03;99790.44;;;18.49;52.54
75646;BME280;64237;52.438;13.240;2023-04-24T10:03:33;99803.81;;;18.52;52.23
75646;BME280;64237;52.438;13.240;2023-04-24T10:06:02;99800.28;;;18.02;55.10
75646;BME280;64237;52.438;13.240;2023-04-24T10:08:35;99804.28;;;17.60;54.26
75646;BME280;64237;52.438;13.240;2023-04-24T10:11:01;99804.13;;;17.29;55.74
75646;BME280;64237;52.438;13.240;2023-04-24T10:13:27;99811.16;;;17.26;54.78
75646;BME280;64237;52.438;13.240;2023-04-24T10:15:53;99810.53;;;17.43;57.67
75646;BME280;64237;52.438;13.240;2023-04-24T10:18:20;99802.88;;;17.07;55.63
75646;BME280;64237;52.438;13.240;2023-04-24T10:20:46;99807.81;;;16.83;56.98
75646;BME280;64237;52.438;13.240;2023-04-24T10:23:11;99810.25;;;16.71;59.14
75646;BME280;64237;52.438;13.240;2023-04-24T10:25:37;99801.91;;;16.52;59.62
75646;BME280;64237;52.438;13.240;2023-04-24T10:28:03;99799.41;;;16.51;58.57
75646;BME280;64237;52.438;13.240;2023-04-24T10:30:31;99807.16;;;16.40;59.62
75646;BME280;64237;52.438;13.240;2023-04-24T10:33:00;99798.72;;;16.26;58.63
75646;BME280;64237;52.438;13.240;2023-04-24T10:35:26;99802.44;;;16.22;58.17
75646;BME280;64237;52.438;13.240;2023-04-24T10:37:58;99789.75;;;16.10;58.18
75646;BME280;64237;52.438;13.240;2023-04-24T10:40:32;99787.13;;;16.19;59.22
75646;BME280;64237;52.438;13.240;2023-04-24T10:42:58;99795.84;;;16.31;57.69
75646;BME280;64237;52.438;13.240;2023-04-24T10:45:24;99798.56;;;16.36;57.87
75646;BME280;64237;52.438;13.240;2023-04-24T10:48:11;99798.63;;;17.10;57.63
75646;BME280;64237;52.438;13.240;2023-04-24T10:53:16;99803.09;;;18.24;54.40
75646;BME280;64237;52.438;13.240;2023-04-24T10:55:50;99793.28;;;17.91;53.83
75646;BME280;64237;52.438;13.240;2023-04-24T10:58:17;99796.19;;;17.86;53.50
75646;BME280;64237;52.438;13.240;2023-04-24T11:00:57;99793.75;;;18.51;51.94
75646;BME280;64237;52.438;13.240;2023-04-24T11:03:31;99794.03;;;18.94;50.07
75646;BME280;64237;52.438;13.240;2023-04-24T11:06:07;99784.63;;;18.68;50.20
75646;BME280;64237;52.438;13.240;2023-04-24T11:08:45;99795.69;;;18.06;52.75
75646;BME280;64237;52.438;13.240;2023-04-24T11:11:15;99788.56;;;17.50;54.25
75646;BME280;64237;52.438;13.240;2023-04-24T11:16:37;99791.25;;;16.87;55.61
75646;BME280;64237;52.438;13.240;2023-04-24T11:21:36;99786.59;;;16.50;57.09
75646;BME280;64237;52.438;13.240;2023-04-24T11:26:48;99799.19;;;16.47;57.97
75646;BME280;64237;52.438;13.240;2023-04-24T11:29:14;99790.63;;;16.25;58.10
75646;BME280;64237;52.438;13.240;2023-04-24T11:31:40;99785.47;;;16.18;59.19
75646;BME280;64237;52.438;13.240;2023-04-24T11:34:11;99801.59;;;16.21;60.45
75646;BME280;64237;52.438;13.240;2023-04-24T11:36:38;99798.16;;;16.43;60.45
75646;BME280;64237;52.438;13.240;2023-04-24T11:39:04;99792.00;;;16.60;59.77
75646;BME280;64237;52.438;13.240;2023-04-24T11:41:30;99789.56;;;16.72;59.73
75646;BME280;64237;52.438;13.240;2023-04-24T11:43:59;99792.94;;;17.01;60.40
75646;BME280;64237;52.438;13.240;2023-04-24T11:46:30;99792.88;;;17.84;57.48
75646;BME280;64237;52.438;13.240;2023-04-24T11:48:57;99795.88;;;17.87;58.52
75646;BME280;64237;52.438;13.240;2023-04-24T11:51:24;99792.66;;;17.94;55.86
75646;BME280;64237;52.438;13.240;2023-04-24T11:53:51;99784.06;;;18.35;54.18
75646;BME280;64237;52.438;13.240;2023-04-24T11:56:22;99783.25;;;18.88;53.63
75646;BME280;64237;52.438;13.240;2023-04-24T11:58:47;99780.75;;;19.65;51.57
75646;BME280;64237;52.438;13.240;2023-04-24T12:01:13;99779.31;;;19.85;51.10
75646;BME280;64237;52.438;13.240;2023-04-24T12:03:41;99779.75;;;19.61;50.67
75646;BME280;64237;52.438;13.240;2023-04-24T12:06:11;99775.47;;;19.15;51.18
75646;BME280;64237;52.438;13.240;2023-04-24T12:08:37;99777.59;;;19.10;49.99
75646;BME280;64237;52.438;13.240;2023-04-24T12:11:04;99766.09;;;20.11;46.67
75646;BME280;64237;52.438;13.240;2023-04-24T12:13:32;99766.31;;;19.49;42.04
75646;BME280;64237;52.438;13.240;2023-04-24T12:15:58;99774.31;;;19.16;41.40
75646;BME280;64237;52.438;13.240;2023-04-24T12:18:24;99772.16;;;18.74;41.47
75646;BME280;64237;52.438;13.240;2023-04-24T12:20:51;99757.97;;;18.48;41.67
75646;BME280;64237;52.438;13.240;2023-04-24T12:23:27;99773.50;;;19.64;41.19
75646;BME280;64237;52.438;13.240;2023-04-24T12:26:00;99751.88;;;20.42;36.57
75646;BME280;64237;52.438;13.240;2023-04-24T12:28:34;99767.06;;;20.50;35.89
75646;BME280;64237;52.438;13.240;2023-04-24T12:31:01;99764.88;;;20.73;35.20
75646;BME280;64237;52.438;13.240;2023-04-24T12:33:27;99760.69;;;21.26;34.49
75646;BME280;64237;52.438;13.240;2023-04-24T12:35:53;99762.28;;;20.42;35.67
75646;BME280;64237;52.438;13.240;2023-04-24T12:38:22;99771.69;;;20.20;37.71
75646;BME280;64237;52.438;13.240;2023-04-24T12:41:04;99771.56;;;19.91;37.99
75646;BME280;64237;52.438;13.240;2023-04-24T12:43:30;99777.16;;;19.91;36.98
75646;BME280;64237;52.438;13.240;2023-04-24T12:45:56;99761.28;;;19.95;38.23
75646;BME280;64237;52.438;13.240;2023-04-24T12:48:22;99764.75;;;20.00;36.57
75646;BME280;64237;52.438;13.240;2023-04-24T12:50:48;99760.16;;;19.87;35.97
75646;BME280;64237;52.438;13.240;2023-04-24T12:53:16;99777.41;;;19.46;36.50
75646;BME280;64237;52.438;13.240;2023-04-24T12:55:41;99772.16;;;19.13;36.47
75646;BME280;64237;52.438;13.240;2023-04-24T12:58:07;99779.88;;;18.99;38.47
75646;BME280;64237;52.438;13.240;2023-04-24T13:00:34;99777.25;;;19.11;37.26